Latest Weather Observations for Darwin Harbour

IDD60901

Issued at 8:31 pm CST Tuesday 3 March 2015 (issued every 10 minutes, with the page automatically refreshed every 10 minutes)

About weather observations | Map of Darwin area stations | Latest observations for Darwin area | Other Formats
Station Details ID: 014072 Name: DARWIN NTC AWS Lat: -12.47 Lon: 130.85 Height: 0.0 m
Data from the previous 72 hours. | See also: Recent months for locations in Northern Territory
Date/Time
CST
Tmp

°C
App
Tmp
°C
Dew
Point
°C
Rel
Hum
%
Delta-T

°C
Wind Press
QNH
hPa
Press
MSL
hPa
Rain
since
9 am
mm
Dir
 
Spd
km/h
Gust
km/h
Spd
kts
Gust
kts
03/08:30pm 28.0 - - - - E 15 19 8 10 1005.2 1005.1 -
03/08:00pm 28.0 - - - - E 19 22 10 12 1005.3 1005.2 -
03/07:30pm 27.9 - - - - E 11 15 6 8 1005.1 1005.0 -
03/07:00pm 27.9 - - - - E 17 20 9 11 1004.5 1004.4 -
03/06:30pm 28.0 - - - - ENE 9 15 5 8 1003.7 1003.6 -
03/06:00pm 27.8 - - - - E 17 20 9 11 1003.8 1003.7 -
03/05:30pm 27.9 - - - - NE 9 22 5 12 1003.6 1003.5 -
03/05:00pm 28.0 - - - - NE 11 28 6 15 1003.4 1003.3 -
03/04:30pm 30.0 - - - - ENE 13 22 7 12 1003.2 1003.1 -
03/04:00pm 30.3 - - - - ENE 17 30 9 16 1003.0 1002.9 -
03/03:30pm 29.6 - - - - ENE 19 26 10 14 1003.2 1003.1 -
03/03:00pm 28.8 - - - - ENE 20 28 11 15 1003.7 1003.6 -
03/02:30pm 28.9 - - - - ENE 17 24 9 13 1004.2 1004.1 -
03/02:00pm 29.1 - - - - ENE 13 20 7 11 1004.6 1004.5 -
03/01:30pm 27.6 - - - - ENE 11 20 6 11 1005.1 1005.0 -
03/01:00pm 27.3 - - - - ENE 15 26 8 14 1005.3 1005.2 -
03/12:30pm 27.3 - - - - ENE 22 35 12 19 1005.8 1005.7 -
03/12:00pm 29.4 - - - - NE 9 17 5 9 1006.0 1005.9 -
03/11:30am 27.8 - - - - ENE 11 15 6 8 1006.2 1006.1 -
03/11:00am 27.3 - - - - ENE 15 26 8 14 1006.4 1006.3 -
03/10:30am 27.8 - - - - ENE 13 19 7 10 1006.6 1006.5 -
03/10:00am 27.5 - - - - ENE 20 26 11 14 1006.3 1006.2 -
03/09:30am 26.9 - - - - ENE 20 28 11 15 1006.2 1006.1 -
03/09:00am 26.2 - - - - ENE 15 24 8 13 1005.7 1005.6 -
03/08:30am 25.6 - - - - ENE 11 19 6 10 1005.5 1005.4 -
03/08:00am 25.4 - - - - ENE 9 17 5 9 1005.1 1005.0 -
03/07:30am 25.2 - - - - ENE 9 15 5 8 1004.6 1004.5 -
03/07:00am 25.3 - - - - ENE 9 19 5 10 1004.3 1004.2 -
03/06:30am 25.1 - - - - ENE 17 22 9 12 1004.0 1003.9 -
03/06:00am 25.3 - - - - ENE 17 20 9 11 1003.2 1003.1 -
03/05:30am 25.4 - - - - ENE 9 17 5 9 1003.3 1003.2 -
03/05:00am 25.4 - - - - ENE 19 26 10 14 1003.1 1003.0 -
03/04:30am 25.3 - - - - SE 17 22 9 12 1003.0 1002.9 -
03/04:00am 25.5 - - - - SE 13 17 7 9 1003.1 1003.0 -
03/03:30am 25.5 - - - - SE 15 20 8 11 1003.1 1003.0 -
03/03:00am 25.6 - - - - S 11 15 6 8 1003.3 1003.2 -
03/02:30am 25.6 - - - - SSW 11 17 6 9 1003.7 1003.6 -
03/02:00am 25.5 - - - - SSW 15 17 8 9 1003.9 1003.8 -
03/01:30am 25.7 - - - - SSW 13 17 7 9 1004.4 1004.3 -
03/01:00am 25.8 - - - - SE 13 15 7 8 1004.7 1004.6 -
03/12:30am 26.0 - - - - SSW 13 17 7 9 1004.7 1004.6 -
03/12:00am 25.9 - - - - S 15 19 8 10 1004.8 1004.7 -
 
Date/Time
CST
Tmp

°C
App
Tmp
°C
Dew
Point
°C
Rel
Hum
%
Delta-T

°C
Wind Press
QNH
hPa
Press
MSL
hPa
Rain
since
9 am
mm
Dir
 
Spd
km/h
Gust
km/h
Spd
kts
Gust
kts
02/11:30pm 25.9 - - - - SW 15 17 8 9 1005.2 1005.1 -
02/11:00pm 25.7 - - - - WSW 13 17 7 9 1005.2 1005.1 -
02/10:30pm 24.9 - - - - WSW 15 19 8 10 1005.3 1005.2 -
02/10:00pm 24.9 - - - - SSW 7 11 4 6 1005.6 1005.5 -
02/09:30pm 24.5 - - - - S 15 22 8 12 1005.3 1005.2 -
02/09:00pm 25.7 - - - - ESE 19 24 10 13 1004.8 1004.7 -
02/08:30pm 26.2 - - - - SSW 15 20 8 11 1004.3 1004.2 -
02/08:00pm 26.4 - - - - SW 20 24 11 13 1003.8 1003.7 -
02/07:30pm 26.6 - - - - WSW 17 20 9 11 1003.5 1003.4 -
02/07:00pm 26.3 - - - - WSW 11 15 6 8 1002.9 1002.8 -
02/06:30pm 25.8 - - - - W 9 17 5 9 1002.7 1002.6 -
02/06:00pm 25.7 - - - - N 7 13 4 7 1002.9 1002.8 -
02/05:30pm 25.5 - - - - W 15 24 8 13 1002.7 1002.6 -
02/05:00pm 24.4 - - - - W 13 22 7 12 1002.8 1002.7 -
02/04:30pm 24.9 - - - - W 15 24 8 13 1003.4 1003.3 -
02/04:00pm 26.0 - - - - W 15 24 8 13 1003.0 1002.9 -
02/03:30pm 26.8 - - - - W 9 17 5 9 1002.8 1002.7 -
02/03:00pm 26.7 - - - - W 11 20 6 11 1003.1 1003.0 -
02/02:30pm 25.6 - - - - W 15 28 8 15 1003.4 1003.3 -
02/02:00pm 26.0 - - - - WSW 17 22 9 12 1004.2 1004.1 -
02/01:30pm 26.4 - - - - WSW 19 24 10 13 1004.1 1004.0 -
02/01:00pm 27.6 - - - - W 20 26 11 14 1004.4 1004.3 -
02/12:30pm 27.3 - - - - W 20 28 11 15 1004.8 1004.7 -
02/12:00pm 27.5 - - - - W 13 20 7 11 1005.5 1005.4 -
02/11:30am 27.5 - - - - W 13 22 7 12 1005.9 1005.8 -
02/11:00am 28.6 - - - - W 9 15 5 8 1005.9 1005.8 -
02/10:30am 28.6 - - - - W 9 17 5 9 1005.8 1005.7 -
02/10:00am 29.0 - - - - WNW 2 4 1 2 1006.2 1006.1 -
02/09:30am 29.2 - - - - E 2 4 1 2 1006.1 1006.0 -
02/09:00am 28.5 - - - - E 6 6 3 3 1006.1 1006.0 -
02/08:30am 28.9 - - - - WNW 2 9 1 5 1005.7 1005.6 -
02/08:00am 28.7 - - - - S 9 11 5 6 1005.6 1005.5 -
02/07:30am 28.9 - - - - SW 6 7 3 4 1005.0 1004.9 -
02/07:00am 28.8 - - - - SW 6 9 3 5 1004.9 1004.8 -
02/06:30am 28.8 - - - - WSW 9 15 5 8 1004.5 1004.4 -
02/06:00am 28.7 - - - - W 9 11 5 6 1004.1 1004.0 -
02/05:30am 28.8 - - - - W 9 13 5 7 1004.1 1004.0 -
02/05:00am 28.7 - - - - W 9 17 5 9 1003.9 1003.8 -
02/04:30am 28.5 - - - - WNW 6 13 3 7 1003.9 1003.8 -
02/04:00am 28.6 - - - - W 9 13 5 7 1003.6 1003.5 -
02/03:30am 28.4 - - - - W 7 13 4 7 1003.7 1003.6 -
02/03:00am 28.5 - - - - W 9 11 5 6 1004.0 1003.9 -
02/02:30am 28.3 - - - - WSW 9 13 5 7 1004.2 1004.1 -
02/02:00am 28.4 - - - - SW 13 17 7 9 1005.0 1004.9 -
02/01:30am 28.5 - - - - WSW 9 13 5 7 1005.2 1005.1 -
02/01:00am 28.9 - - - - WSW 9 15 5 8 1006.1 1006.0 -
02/12:30am 28.9 - - - - WSW 11 15 6 8 1006.3 1006.2 -
02/12:00am 28.8 - - - - WSW 13 15 7 8 1006.1 1006.0 -
 
Date/Time
CST
Tmp

°C
App
Tmp
°C
Dew
Point
°C
Rel
Hum
%
Delta-T

°C
Wind Press
QNH
hPa
Press
MSL
hPa
Rain
since
9 am
mm
Dir
 
Spd
km/h
Gust
km/h
Spd
kts
Gust
kts
01/11:30pm 28.9 - - - - WSW 11 15 6 8 1006.5 1006.4 -
01/11:00pm 29.0 - - - - W 13 19 7 10 1006.3 1006.2 -
01/10:30pm 28.4 - - - - WNW 9 13 5 7 1006.3 1006.2 -
01/10:00pm 28.7 - - - - ENE 6 11 3 6 1007.0 1006.9 -
01/09:30pm 29.5 - - - - NNW 4 7 2 4 1006.7 1006.6 -
01/09:00pm 29.2 - - - - WSW 6 9 3 5 1006.5 1006.4 -
01/08:30pm 29.0 - - - - W 11 17 6 9 1005.7 1005.6 -
01/08:00pm 28.8 - - - - W 15 20 8 11 1005.5 1005.4 -
01/07:30pm 28.4 - - - - WSW 22 28 12 15 1004.6 1004.5 -
01/07:00pm 29.8 - - - - W 22 32 12 17 1004.6 1004.5 -
01/06:30pm 29.7 - - - - W 20 28 11 15 1004.4 1004.3 -
01/06:00pm 29.4 - - - - W 15 20 8 11 1003.7 1003.6 -
01/05:30pm 29.5 - - - - W 15 20 8 11 1003.2 1003.1 -
01/05:00pm 29.4 - - - - W 20 28 11 15 1003.2 1003.1 -
01/04:30pm 29.7 - - - - WNW 15 26 8 14 1003.4 1003.3 -
01/04:00pm 28.8 - - - - NW 15 24 8 13 1003.3 1003.2 -
01/03:30pm 26.9 - - - - NW 7 17 4 9 1003.9 1003.8 -
01/03:00pm 25.9 - - - - WNW 17 33 9 18 1003.9 1003.8 -
01/02:31pm 27.1 - - - - WSW 28 48 15 26 1003.5 1003.4 -
01/02:30pm 28.0 - - - - WSW 26 44 14 24 1003.6 1003.5 -
01/02:00pm 31.0 - - - - W 19 24 10 13 1004.4 1004.3 -
01/01:30pm 31.1 - - - - W 17 22 9 12 1004.9 1004.8 -
01/01:00pm 31.0 - - - - W 17 26 9 14 1005.3 1005.2 -
01/12:30pm 31.2 - - - - W 13 22 7 12 1006.1 1006.0 -
01/12:00pm 31.0 - - - - W 13 20 7 11 1006.5 1006.4 -
01/11:30am 30.7 - - - - WNW 17 24 9 13 1006.7 1006.6 -
01/11:00am 30.2 - - - - W 17 22 9 12 1006.9 1006.8 -
01/10:30am 30.1 - - - - W 17 24 9 13 1007.0 1006.9 -
01/10:00am 29.8 - - - - W 17 22 9 12 1007.2 1007.1 -
01/09:30am 29.5 - - - - WNW 6 13 3 7 1007.0 1006.9 -
01/09:00am 29.1 - - - - W 4 7 2 4 1006.9 1006.8 -
01/08:30am 28.9 - - - - W 7 11 4 6 1006.6 1006.5 -
01/08:00am 28.7 - - - - W 9 13 5 7 1006.2 1006.1 -
01/07:30am 28.7 - - - - WSW 13 17 7 9 1005.7 1005.6 -
01/07:00am 28.9 - - - - W 15 20 8 11 1005.3 1005.2 -
01/06:30am 28.9 - - - - W 11 17 6 9 1005.2 1005.1 -
01/06:00am 28.6 - - - - WNW 9 17 5 9 1004.8 1004.7 -
01/05:30am 28.8 - - - - W 11 17 6 9 1004.8 1004.7 -
01/05:00am 28.7 - - - - W 13 20 7 11 1004.4 1004.3 -
01/04:30am 28.7 - - - - WNW 11 15 6 8 1004.6 1004.5 -
01/04:00am 28.7 - - - - WNW 11 19 6 10 1004.6 1004.5 -
01/03:30am 28.6 - - - - WNW 15 19 8 10 1004.8 1004.7 -
01/03:00am 28.8 - - - - W 13 20 7 11 1005.2 1005.1 -
01/02:30am 28.7 - - - - W 11 15 6 8 1005.2 1005.1 -
01/02:00am 28.7 - - - - W 11 17 6 9 1005.7 1005.6 -
01/01:30am 28.8 - - - - W 15 19 8 10 1005.9 1005.8 -
01/01:00am 28.8 - - - - W 13 20 7 11 1006.0 1005.9 -
01/12:30am 28.8 - - - - W 13 20 7 11 1006.3 1006.2 -
01/12:00am 28.9 - - - - W 13 17 7 9 1007.1 1007.0 -
 
Date/Time
CST
Tmp

°C
App
Tmp
°C
Dew
Point
°C
Rel
Hum
%
Delta-T

°C
Wind Press
QNH
hPa
Press
MSL
hPa
Rain
since
9 am
mm
Dir
 
Spd
km/h
Gust
km/h
Spd
kts
Gust
kts
28/11:30pm 29.0 - - - - W 13 15 7 8 1007.4 1007.3 -
28/11:00pm 29.1 - - - - W 13 19 7 10 1007.3 1007.2 -
28/10:30pm 29.0 - - - - W 11 15 6 8 1007.4 1007.3 -
28/10:00pm 28.8 - - - - W 13 17 7 9 1007.4 1007.3 -
28/09:30pm 28.9 - - - - W 13 19 7 10 1007.0 1006.9 -
28/09:00pm 28.9 - - - - W 15 20 8 11 1005.8 1005.7 -

Latest Capital City Observations: Canberra | Sydney | Melbourne | Brisbane | Adelaide | Perth | Hobart | Darwin

Other Formats:

Comma delimited format used in spreadsheet applications
http://www.bom.gov.au/fwo/IDD60901/IDD60901.95122.axf

JavaScript Object Notation format (JSON) in row-major order
http://www.bom.gov.au/fwo/IDD60901/IDD60901.95122.json